Latest Weather Observations for Minlaton Airport

IDS60801

Issued at 5:35 pm CST Sunday 20 April 2014 (issued every 30 minutes, with the page automatically refreshed every 10 minutes)

About weather observations | Map of weather stations | Latest weather observations for SA | Other Formats
Station Details ID: 022031 Name: MINLATON AERO Lat: -34.75 Lon: 137.53 Height: 32.0 m
Data from the previous 72 hours. | See also: Recent months at Minlaton Airport
Date/Time
CST
Temp
°C
App
Temp
°C
Dew
Point
Rel
Hum
%
Delta-T
°C
Wind Press
QNH
hPa
Press
MSL
hPa
Rain
since 9 am
mm
Dir
 
Spd
km/h
Gust
km/h
Spd
kts
Gust
kts
20/05:30pm 18.5 16.6 11.8 65 3.7 WSW 13 15 7 8 1017.4 - 0.0
20/05:00pm 19.9 18.6 11.1 57 4.8 WSW 9 11 5 6 1017.2 - 0.0
20/04:30pm 20.0 18.2 11.0 56 4.9 WNW 11 13 6 7 1017.2 - 0.0
20/04:00pm 20.5 18.5 10.3 52 5.5 W 11 15 6 8 1017.0 - 0.0
20/03:30pm 19.9 18.0 10.6 55 5.0 W 11 15 6 8 1017.2 - 0.0
20/03:00pm 19.6 17.3 11.6 60 4.4 W 15 20 8 11 1017.4 1017.4 0.0
20/02:30pm 20.0 17.9 11.2 57 4.8 W 13 20 7 11 1017.3 - 0.0
20/02:00pm 20.2 17.5 11.7 58 4.7 W 17 24 9 13 1017.3 - 0.0
20/01:30pm 20.1 17.0 11.6 58 4.7 W 19 26 10 14 1017.4 - 0.0
20/01:00pm 20.1 16.6 12.3 61 4.4 W 22 30 12 16 1017.8 - 0.0
20/12:30pm 20.2 17.4 11.4 57 4.9 W 17 22 9 12 1018.0 - 0.0
20/12:00pm 19.9 17.0 11.1 57 4.8 WNW 17 24 9 13 1018.3 1018.3 0.0
20/11:30am 19.8 17.1 11.6 59 4.5 WNW 17 22 9 12 1018.5 - 0.0
20/11:00am 19.6 17.4 12.1 62 4.2 WNW 15 24 8 13 1018.6 - 0.0
20/10:30am 19.7 17.4 11.7 60 4.4 WNW 15 20 8 11 1018.7 - 0.0
20/10:00am 19.3 16.2 11.6 61 4.2 NW 19 22 10 12 1018.6 - 0.0
20/09:30am 19.2 16.4 11.3 60 4.3 NNW 17 24 9 13 1018.6 - 0.0
20/09:00am 18.3 15.2 10.4 60 4.2 N 17 20 9 11 1018.7 1018.7 0.0
20/08:30am 17.5 14.7 8.6 56 4.6 N 13 17 7 9 1018.7 - 0.0
20/08:00am 14.9 12.0 8.2 64 3.4 NNE 13 13 7 7 1018.4 - 0.0
20/07:30am 12.7 9.1 6.7 67 2.9 NE 15 17 8 9 1018.4 - 0.0
20/07:00am 10.4 6.3 6.4 76 1.9 NNE 17 17 9 9 1018.0 - 0.0
20/06:30am 9.8 6.0 5.8 76 1.8 NE 15 17 8 9 1017.7 - 0.0
20/06:00am 9.9 6.6 6.2 78 1.7 NNE 13 15 7 8 1017.7 1017.7 0.0
20/05:30am 9.9 6.6 6.2 78 1.7 NE 13 15 7 8 1017.4 - 0.0
20/05:00am 10.5 7.0 7.0 79 1.7 NNE 15 15 8 8 1017.2 - 0.0
20/04:30am 10.2 6.7 7.3 82 1.4 NNE 15 17 8 9 1017.1 - 0.0
20/04:00am 10.6 6.8 7.5 81 1.5 NE 17 17 9 9 1017.0 - 0.0
20/03:30am 10.4 6.5 7.1 80 1.6 NNE 17 17 9 9 1017.1 - 0.0
20/03:00am 10.6 6.6 6.7 77 1.8 NNE 17 17 9 9 1017.3 1017.3 0.0
20/02:30am 11.0 7.4 6.7 75 2.0 NE 15 17 8 9 1017.2 - 0.0
20/02:00am 11.3 10.6 6.8 74 2.1 CALM 0 0 0 0 1017.6 - 0.0
20/01:30am 12.2 11.5 7.1 71 2.5 CALM 0 0 0 0 1017.7 - 0.0
20/01:00am 12.8 12.3 7.7 71 2.5 CALM 0 0 0 0 1017.7 - 0.0
20/12:30am 13.7 12.0 7.7 67 3.0 SSE 6 7 3 4 1017.8 - 0.0
20/12:00am 13.4 11.7 7.6 68 2.8 S 6 7 3 4 1017.7 1017.7 0.0
 
Date/Time
CST
Temp
°C
App
Temp
°C
Dew
Point
Rel
Hum
%
Delta-T
°C
Wind Press
QNH
hPa
Press
MSL
hPa
Rain
since 9 am
mm
Dir
 
Spd
km/h
Gust
km/h
Spd
kts
Gust
kts
19/11:30pm 14.1 12.3 8.1 67 3.0 SSE 7 9 4 5 1017.8 - 0.0
19/11:00pm 14.3 12.1 8.0 66 3.1 S 9 11 5 6 1018.0 - 0.0
19/10:30pm 14.6 12.9 7.6 63 3.5 SSE 6 7 3 4 1018.3 - 0.0
19/10:00pm 14.6 13.0 7.9 64 3.3 ENE 6 7 3 4 1018.5 - 0.0
19/09:30pm 15.1 11.7 7.6 61 3.7 E 15 17 8 9 1018.3 - 0.0
19/09:00pm 15.0 12.0 7.5 61 3.7 E 13 15 7 8 1018.3 1018.3 0.0
19/08:30pm 15.0 11.6 7.5 61 3.7 E 15 19 8 10 1018.2 - 0.0
19/08:00pm 14.9 11.5 7.5 61 3.7 E 15 17 8 9 1018.2 - 0.0
19/07:30pm 14.8 10.5 7.1 60 3.8 E 19 22 10 12 1017.9 - 0.0
19/07:00pm 15.1 10.6 6.9 58 4.0 E 20 24 11 13 1018.0 - 0.0
19/06:30pm 15.5 12.0 7.0 57 4.2 E 15 17 8 9 1018.3 - 0.0
19/06:00pm 16.1 11.8 6.8 54 4.6 E 19 24 10 13 1018.1 1018.1 0.0
19/05:30pm 16.3 13.4 6.4 52 4.8 ESE 11 13 6 7 1018.4 - 0.0
19/05:00pm 17.0 14.8 6.2 49 5.3 SW 7 11 4 6 1018.5 - 0.0
19/04:30pm 17.7 15.1 6.3 47 5.6 SW 9 15 5 8 1018.5 - 0.0
19/04:00pm 17.8 14.0 5.7 45 5.9 WSW 15 20 8 11 1018.7 - 0.0
19/03:30pm 18.7 14.6 6.2 44 6.2 WSW 17 22 9 12 1018.8 - 0.0
19/03:00pm 19.8 16.6 5.1 38 7.2 WSW 11 19 6 10 1018.8 1018.8 0.0
19/02:30pm 18.9 14.6 5.4 41 6.6 W 17 26 9 14 1018.9 - 0.0
19/02:00pm 18.1 13.9 5.7 44 6.1 W 17 22 9 12 1019.1 - 0.0
19/01:30pm 18.5 16.1 5.4 42 6.4 SE 7 11 4 6 1019.4 - 0.0
19/01:00pm 18.3 16.6 5.8 44 6.1 NE 4 9 2 5 1020.1 - 0.0
19/12:30pm 17.8 14.9 6.7 48 5.5 WSW 11 17 6 9 1020.8 - 0.0
19/12:00pm 17.3 14.0 6.5 49 5.3 W 13 20 7 11 1021.5 1021.5 0.0
19/11:30am 17.2 15.0 6.1 48 5.4 N 7 13 4 7 1021.9 - 0.0
19/11:00am 16.8 14.8 6.3 50 5.1 W 6 9 3 5 1022.1 - 0.0
19/10:30am 16.1 13.6 6.5 53 4.7 WNW 9 15 5 8 1022.4 - 0.0
19/10:00am 16.1 13.2 6.5 53 4.7 NNW 11 15 6 8 1022.7 - 0.0
19/09:30am 15.7 12.1 6.7 55 4.4 N 15 19 8 10 1023.0 - 0.0
19/09:00am 15.1 11.3 7.6 61 3.7 N 17 20 9 11 1023.1 1023.1 0.0
19/08:30am 13.7 10.5 8.5 71 2.6 N 15 17 8 9 1023.1 - 0.0
19/08:00am 12.3 9.1 8.6 78 1.8 N 15 17 8 9 1022.9 - 0.0
19/07:30am 11.5 8.3 8.5 82 1.5 NNE 15 17 8 9 1022.6 - 0.0
19/07:00am 9.3 5.5 7.7 90 0.8 NNE 17 19 9 10 1022.4 - 0.0
19/06:30am 8.2 4.9 6.2 87 0.9 E 13 19 7 10 1022.2 - 0.0
19/06:00am 8.1 5.0 5.7 85 1.1 SE 11 11 6 6 1022.1 1022.1 0.0
19/05:30am 10.0 6.8 6.7 80 1.5 S 13 15 7 8 1022.1 - 0.0
19/05:00am 10.3 6.8 7.0 80 1.6 SSE 15 17 8 9 1022.1 - 0.0
19/04:30am 10.5 6.3 7.4 81 1.5 SSE 19 20 10 11 1021.9 - 0.0
19/04:00am 10.4 6.2 7.3 81 1.5 SSE 19 20 10 11 1022.0 - 0.0
19/03:30am 9.0 4.5 6.1 82 1.3 SSE 19 19 10 10 1022.0 - 0.0
19/03:00am 10.2 5.8 6.4 77 1.8 SSE 19 20 10 11 1022.0 1022.0 0.0
19/02:30am 10.6 6.3 7.1 79 1.7 SSE 19 20 10 11 1022.1 - 0.0
19/02:00am 10.4 5.9 7.1 80 1.6 SSE 20 20 11 11 1022.4 - 0.0
19/01:30am 10.6 6.2 6.4 75 2.0 SE 19 20 10 11 1022.7 - 0.0
19/01:00am 11.4 6.8 6.5 72 2.3 SSE 20 22 11 12 1022.9 - 0.0
19/12:30am 10.3 6.9 6.1 75 1.9 SE 13 17 7 9 1023.0 - 0.0
19/12:00am 9.5 5.6 5.5 76 1.8 SSE 15 17 8 9 1023.1 1023.1 0.0
 
Date/Time
CST
Temp
°C
App
Temp
°C
Dew
Point
Rel
Hum
%
Delta-T
°C
Wind Press
QNH
hPa
Press
MSL
hPa
Rain
since 9 am
mm
Dir
 
Spd
km/h
Gust
km/h
Spd
kts
Gust
kts
18/11:30pm 9.5 5.2 5.1 74 2.0 SE 17 17 9 9 1023.2 - 0.0
18/11:00pm 10.4 5.7 5.2 70 2.4 SE 19 20 10 11 1023.4 - 0.0
18/10:30pm 11.4 6.5 5.3 66 2.8 SE 20 20 11 11 1023.5 - 0.0
18/10:00pm 10.1 5.3 4.7 69 2.4 SE 19 20 10 11 1023.7 - 0.0
18/09:30pm 11.2 6.4 4.7 64 2.9 SE 19 20 10 11 1023.7 - 0.0
18/09:00pm 11.6 6.9 5.9 68 2.6 SE 20 20 11 11 1023.6 1023.6 0.0
18/08:30pm 11.8 7.4 6.5 70 2.5 SE 19 20 10 11 1023.6 - 0.0
18/08:00pm 12.5 8.1 7.2 70 2.6 SE 20 22 11 12 1023.3 - 0.0
18/07:30pm 12.1 7.8 6.8 70 2.5 SE 19 20 10 11 1023.2 - 0.0
18/07:00pm 12.8 8.5 6.8 67 2.9 SE 19 20 10 11 1023.1 - 0.0
18/06:30pm 13.8 9.2 6.7 62 3.4 SE 20 22 11 12 1022.9 - 0.0
18/06:00pm 15.0 10.0 6.6 57 4.1 SE 22 28 12 15 1022.7 1022.7 0.0
18/05:30pm 16.6 10.5 6.7 52 4.9 SE 28 32 15 17 1022.6 - 0.0
18/05:00pm 18.0 12.0 7.1 49 5.5 SSE 28 32 15 17 1022.3 - 0.0
18/04:30pm 18.4 14.0 6.6 46 5.9 S 19 24 10 13 1022.1 - 0.0
18/04:00pm 19.7 15.3 7.4 45 6.3 S 20 33 11 18 1021.9 - 0.0
18/03:30pm 19.7 14.2 5.7 40 6.9 SSW 24 35 13 19 1021.8 - 0.0
18/03:00pm 20.2 15.3 5.1 37 7.4 SW 20 28 11 15 1021.9 1021.9 0.0
18/02:30pm 20.5 15.6 5.3 37 7.5 S 20 28 11 15 1021.9 - 0.0
18/02:00pm 20.9 16.0 5.3 36 7.7 SSW 20 28 11 15 1021.8 - 0.0
18/01:30pm 20.2 14.8 6.5 41 6.9 S 24 32 13 17 1021.8 - 0.0
18/01:00pm 20.1 14.6 5.7 39 7.1 S 24 35 13 19 1022.0 - 0.0
18/12:30pm 19.6 14.4 7.4 45 6.2 S 24 37 13 20 1022.2 - 0.0
18/12:00pm 20.1 14.3 8.1 46 6.2 S 28 46 15 25 1022.4 1022.4 0.0
18/11:39am 20.0 14.3 8.4 47 6.0 SSW 28 46 15 25 1022.4 - 0.0
18/11:30am 20.2 15.6 9.5 50 5.7 SSW 24 35 13 19 1022.5 - 0.0
18/11:00am 20.1 15.3 10.2 53 5.3 SSW 26 37 14 20 1022.5 - 0.0
18/10:30am 18.9 14.3 11.0 60 4.3 S 26 37 14 20 1022.6 - 0.0
18/10:00am 19.1 14.7 11.7 62 4.1 S 26 35 14 19 1022.5 - 0.0
18/09:30am 18.6 13.5 11.9 65 3.7 SSW 30 37 16 20 1022.5 - 0.0
18/09:00am 18.1 13.9 13.6 75 2.5 SSW 28 35 15 19 1022.3 1022.3 0.2
18/08:30am 17.3 14.0 14.0 81 1.9 SSW 24 33 13 18 1022.1 - 0.2
18/08:00am 16.6 14.7 15.1 91 0.9 SSW 19 22 10 12 1021.6 - 0.2
18/07:30am 16.2 12.8 14.7 91 0.9 SSW 26 32 14 17 1021.0 - 0.2
18/07:00am 16.5 13.6 15.0 91 0.9 SW 24 30 13 16 1020.5 - 0.2
18/06:30am 16.6 12.7 15.6 94 0.6 WSW 30 35 16 19 1020.1 - 0.2
18/06:00am 17.7 15.1 15.0 84 1.6 W 22 28 12 15 1019.8 1019.8 0.0
18/05:30am 17.4 14.7 14.7 84 1.6 W 22 26 12 14 1019.7 - 0.0
18/05:00am 17.3 14.2 14.6 84 1.6 W 24 30 13 16 1019.7 - 0.0
18/04:30am 17.2 13.2 14.1 82 1.8 W 28 32 15 17 1019.7 - 0.0
18/04:00am 17.1 13.5 14.2 83 1.7 W 26 32 14 17 1019.6 - 0.0
18/03:30am 16.9 13.5 13.8 82 1.8 W 24 30 13 16 1019.5 - 0.0
18/03:00am 17.0 13.4 14.1 83 1.6 W 26 30 14 16 1019.6 1019.6 0.0
18/02:30am 16.6 13.5 13.5 82 1.7 W 22 28 12 15 1019.6 - 0.0
18/02:00am 17.0 13.7 13.9 82 1.8 WSW 24 30 13 16 1019.6 - 0.0
18/01:30am 16.9 13.5 13.6 81 1.9 W 24 32 13 17 1019.7 - 0.0
18/01:00am 17.5 13.8 14.0 80 2.0 WSW 26 32 14 17 1019.5 - 0.0
18/12:30am 17.5 13.9 14.2 81 1.9 WSW 26 32 14 17 1019.4 - 0.0
18/12:00am 17.4 14.1 14.9 85 1.4 W 26 32 14 17 1019.4 1019.4 0.0
 
Date/Time
CST
Temp
°C
App
Temp
°C
Dew
Point
Rel
Hum
%
Delta-T
°C
Wind Press
QNH
hPa
Press
MSL
hPa
Rain
since 9 am
mm
Dir
 
Spd
km/h
Gust
km/h
Spd
kts
Gust
kts
17/11:30pm 17.6 14.7 15.2 86 1.4 W 24 32 13 17 1019.6 - 0.0
17/11:00pm 17.8 15.9 15.1 84 1.6 W 19 22 10 12 1019.8 - 0.0
17/10:30pm 18.4 15.5 15.1 81 1.9 WNW 24 30 13 16 1019.9 - 0.0
17/10:00pm 17.7 15.2 14.2 80 2.0 WNW 20 24 11 13 1020.1 - 0.0
17/09:30pm 15.7 14.7 13.5 87 1.2 NNW 11 19 6 10 1020.2 - 0.0
17/09:00pm 15.8 15.2 13.6 87 1.2 NNW 9 11 5 6 1020.2 1020.2 0.0
17/08:30pm 15.6 14.6 13.4 87 1.2 NNW 11 15 6 8 1020.0 - 0.0
17/08:00pm 15.1 13.4 12.4 84 1.5 NW 13 13 7 7 1019.8 - 0.0
17/07:30pm 16.2 15.0 12.7 80 1.9 NNW 11 13 6 7 1019.4 - 0.0
17/07:00pm 16.6 16.1 12.6 77 2.2 N 7 7 4 4 1019.1 - 0.0
17/06:30pm 17.5 17.2 13.2 76 2.4 NNW 7 9 4 5 1018.8 - 0.0
17/06:00pm 18.7 18.3 13.1 70 3.2 WNW 7 9 4 5 1018.8 1018.8 0.0

Other Formats:

Comma delimited format used in spreadsheet applications
http://www.bom.gov.au/fwo/IDS60801/IDS60801.95659.axf

JavaScript Object Notation format (JSON) in row-major order
http://www.bom.gov.au/fwo/IDS60801/IDS60801.95659.json